createdAt,value
2022-11-29T00:00:20.317Z,1007.60
2022-11-29T00:01:20.312Z,1007.56
2022-11-29T00:02:20.438Z,1007.56
2022-11-29T00:03:20.416Z,1007.58
2022-11-29T00:04:20.274Z,1007.57
2022-11-29T00:05:20.269Z,1007.59
2022-11-29T00:06:20.248Z,1007.59
2022-11-29T00:07:20.295Z,1007.58
2022-11-29T00:08:20.229Z,1007.61
2022-11-29T00:09:20.221Z,1007.61
2022-11-29T00:10:20.205Z,1007.61
2022-11-29T00:11:20.199Z,1007.62
2022-11-29T00:12:20.194Z,1007.58
2022-11-29T00:13:20.183Z,1007.61
2022-11-29T00:14:20.163Z,1007.62
2022-11-29T00:15:20.157Z,1007.61
2022-11-29T00:16:20.262Z,1007.58
2022-11-29T00:17:20.146Z,1007.60
2022-11-29T00:18:20.117Z,1007.58
2022-11-29T00:19:20.113Z,1007.57
2022-11-29T00:20:20.099Z,1007.54
2022-11-29T00:21:20.089Z,1007.55
2022-11-29T00:22:20.085Z,1007.52
2022-11-29T00:23:20.066Z,1007.58
2022-11-29T00:24:20.060Z,1007.59
2022-11-29T00:25:20.048Z,1007.62
2022-11-29T00:26:20.029Z,1007.64
2022-11-29T00:27:20.032Z,1007.60
2022-11-29T00:28:20.006Z,1007.63
2022-11-29T00:29:20.000Z,1007.59
2022-11-29T00:30:19.985Z,1007.62
2022-11-29T00:31:19.983Z,1007.66
2022-11-29T00:32:19.972Z,1007.66
2022-11-29T00:33:19.955Z,1007.66
2022-11-29T00:34:19.940Z,1007.62
2022-11-29T00:35:19.932Z,1007.62
2022-11-29T00:36:19.921Z,1007.61
2022-11-29T00:37:19.921Z,1007.58
2022-11-29T00:38:19.898Z,1007.60
2022-11-29T00:39:19.889Z,1007.59
2022-11-29T00:40:19.874Z,1007.56
2022-11-29T00:41:19.866Z,1007.59
2022-11-29T00:42:19.862Z,1007.60
2022-11-29T00:43:19.840Z,1007.58
2022-11-29T00:44:20.661Z,1007.60
2022-11-29T00:45:19.819Z,1007.57
2022-11-29T00:46:19.885Z,1007.55
2022-11-29T00:47:19.806Z,1007.61
2022-11-29T00:48:19.808Z,1007.59
2022-11-29T00:49:19.775Z,1007.61
2022-11-29T00:50:19.769Z,1007.65
2022-11-29T00:51:19.773Z,1007.61
2022-11-29T00:52:19.769Z,1007.64
2022-11-29T00:53:19.735Z,1007.68
2022-11-29T00:54:19.724Z,1007.65
2022-11-29T00:55:19.707Z,1007.67
2022-11-29T00:56:19.701Z,1007.72
2022-11-29T00:57:19.696Z,1007.72
2022-11-29T00:58:19.680Z,1007.72
2022-11-29T00:59:19.665Z,1007.73
2022-11-29T01:00:19.658Z,1007.71
2022-11-29T01:01:19.683Z,1007.67
2022-11-29T01:02:19.661Z,1007.69
2022-11-29T01:03:19.619Z,1007.72
2022-11-29T01:04:19.615Z,1007.69
2022-11-29T01:05:19.599Z,1007.68
2022-11-29T01:06:19.591Z,1007.70
2022-11-29T01:07:19.624Z,1007.72
2022-11-29T01:08:19.574Z,1007.69
2022-11-29T01:09:19.553Z,1007.74
2022-11-29T01:10:19.546Z,1007.71
2022-11-29T01:11:19.530Z,1007.74
2022-11-29T01:12:19.537Z,1007.67
2022-11-29T01:13:19.510Z,1007.71
2022-11-29T01:14:19.506Z,1007.69
2022-11-29T01:15:19.489Z,1007.69
2022-11-29T01:16:19.520Z,1007.69
2022-11-29T01:17:19.474Z,1007.71
2022-11-29T01:18:19.471Z,1007.68
2022-11-29T01:19:19.442Z,1007.65
2022-11-29T01:20:19.437Z,1007.70
2022-11-29T01:21:19.423Z,1007.63
2022-11-29T01:22:19.425Z,1007.65
2022-11-29T01:23:19.402Z,1007.67
2022-11-29T01:24:19.400Z,1007.72
2022-11-29T01:25:19.377Z,1007.68
2022-11-29T01:26:19.370Z,1007.75
2022-11-29T01:27:19.364Z,1007.74
2022-11-29T01:28:19.424Z,1007.71
2022-11-29T01:29:19.332Z,1007.74
2022-11-29T01:30:19.328Z,1007.73
2022-11-29T01:31:19.373Z,1007.77
2022-11-29T01:32:19.313Z,1007.76
2022-11-29T01:33:19.288Z,1007.76
2022-11-29T01:34:19.282Z,1007.81
2022-11-29T01:35:19.270Z,1007.79
2022-11-29T01:36:19.260Z,1007.80
2022-11-29T01:37:19.255Z,1007.82
2022-11-29T01:38:19.237Z,1007.84
2022-11-29T01:39:19.221Z,1007.88
2022-11-29T01:40:19.215Z,1007.86
2022-11-29T01:41:19.198Z,1007.88
2022-11-29T01:42:19.194Z,1007.87
2022-11-29T01:43:19.185Z,1007.90
2022-11-29T01:44:19.173Z,1007.93
2022-11-29T01:45:19.156Z,1007.95
2022-11-29T01:46:19.171Z,1007.98
2022-11-29T01:47:19.135Z,1007.95
2022-11-29T01:48:19.138Z,1007.94
2022-11-29T01:49:19.111Z,1007.99
2022-11-29T01:50:19.105Z,1008.00
2022-11-29T01:51:19.089Z,1007.99
2022-11-29T01:52:19.089Z,1007.99
2022-11-29T01:53:19.080Z,1007.99
2022-11-29T01:54:19.063Z,1007.99
2022-11-29T01:55:19.044Z,1008.01
2022-11-29T01:56:19.074Z,1008.03
2022-11-29T01:57:19.023Z,1008.02
2022-11-29T01:58:19.026Z,1007.98
2022-11-29T01:59:19.002Z,1008.03
2022-11-29T02:00:18.995Z,1008.04
2022-11-29T02:01:19.015Z,1007.98
2022-11-29T02:02:18.989Z,1008.02
2022-11-29T02:03:18.968Z,1008.02
2022-11-29T02:04:18.950Z,1008.04
2022-11-29T02:05:18.933Z,1008.06
2022-11-29T02:06:18.927Z,1008.05
2022-11-29T02:07:18.985Z,1008.08
2022-11-29T02:08:18.915Z,1008.09
2022-11-29T02:09:18.891Z,1008.07
2022-11-29T02:10:18.883Z,1008.08
2022-11-29T02:11:18.869Z,1008.07
2022-11-29T02:12:18.864Z,1008.09
2022-11-29T02:13:18.856Z,1008.10
2022-11-29T02:14:18.853Z,1008.09
2022-11-29T02:15:18.823Z,1008.08
2022-11-29T02:16:18.868Z,1008.06
2022-11-29T02:17:18.802Z,1008.11
2022-11-29T02:18:18.803Z,1008.07
2022-11-29T02:19:18.781Z,1008.06
2022-11-29T02:20:18.777Z,1008.09
2022-11-29T02:21:18.758Z,1008.10
2022-11-29T02:22:18.752Z,1008.10
2022-11-29T02:23:18.745Z,1008.07
2022-11-29T02:24:18.729Z,1008.08
2022-11-29T02:25:18.714Z,1008.04
2022-11-29T02:26:18.709Z,1008.03
2022-11-29T02:27:18.692Z,1008.03
2022-11-29T02:28:18.693Z,1008.08
2022-11-29T02:29:18.670Z,1008.09
2022-11-29T02:30:18.664Z,1008.11
2022-11-29T02:31:18.674Z,1008.09
2022-11-29T02:32:18.641Z,1008.13
2022-11-29T02:33:18.643Z,1008.15
2022-11-29T02:34:18.618Z,1008.17
2022-11-29T02:35:18.604Z,1008.22
2022-11-29T02:36:18.596Z,1008.20
2022-11-29T02:37:18.585Z,1008.18
2022-11-29T02:38:18.585Z,1008.18
2022-11-29T02:39:18.559Z,1008.23
2022-11-29T02:40:18.552Z,1008.24
2022-11-29T02:41:18.537Z,1008.23
2022-11-29T02:42:18.532Z,1008.21
2022-11-29T02:43:18.527Z,1008.24
2022-11-29T02:44:18.509Z,1008.21
2022-11-29T02:45:18.492Z,1008.24
2022-11-29T02:46:18.516Z,1008.22
2022-11-29T02:47:18.470Z,1008.19
2022-11-29T02:48:18.472Z,1008.21
2022-11-29T02:49:18.452Z,1008.33
2022-11-29T02:50:18.461Z,1008.29
2022-11-29T02:51:18.426Z,1008.31
2022-11-29T02:52:18.421Z,1008.26
2022-11-29T02:53:18.417Z,1008.32
2022-11-29T02:54:18.400Z,1008.32
2022-11-29T02:55:18.383Z,1008.37
2022-11-29T02:56:18.375Z,1008.33
2022-11-29T02:57:18.359Z,1008.38
2022-11-29T02:58:18.366Z,1008.39
2022-11-29T02:59:18.336Z,1008.44
2022-11-29T03:00:18.335Z,1008.38
2022-11-29T03:01:18.353Z,1008.40
2022-11-29T03:02:18.336Z,1008.43
2022-11-29T03:03:18.305Z,1008.45
2022-11-29T03:04:18.287Z,1008.47
2022-11-29T03:05:18.271Z,1008.49
2022-11-29T03:06:18.263Z,1008.48
2022-11-29T03:07:18.286Z,1008.48
2022-11-29T03:08:18.253Z,1008.50
2022-11-29T03:09:18.233Z,1008.50
2022-11-29T03:10:18.219Z,1008.56
2022-11-29T03:11:18.205Z,1008.56
2022-11-29T03:12:18.197Z,1008.53
2022-11-29T03:13:18.192Z,1008.57
2022-11-29T03:14:18.177Z,1008.59
2022-11-29T03:15:18.170Z,1008.55
2022-11-29T03:16:18.153Z,1008.59
2022-11-29T03:17:18.157Z,1008.57
2022-11-29T03:18:18.139Z,1008.60
2022-11-29T03:19:18.118Z,1008.57
2022-11-29T03:20:18.110Z,1008.59
2022-11-29T03:21:18.103Z,1008.58
2022-11-29T03:22:18.082Z,1008.62
2022-11-29T03:23:18.094Z,1008.61
2022-11-29T03:24:18.089Z,1008.62
2022-11-29T03:25:18.055Z,1008.61
2022-11-29T03:26:18.039Z,1008.60
2022-11-29T03:27:18.032Z,1008.63
2022-11-29T03:28:18.035Z,1008.62
2022-11-29T03:29:18.011Z,1008.60
2022-11-29T03:30:18.147Z,1008.64
2022-11-29T03:31:18.144Z,1008.61
2022-11-29T03:32:17.974Z,1008.64
2022-11-29T03:33:17.965Z,1008.63
2022-11-29T03:34:17.958Z,1008.67
2022-11-29T03:35:17.946Z,1008.64
2022-11-29T03:36:17.929Z,1008.64
2022-11-29T03:37:17.930Z,1008.66
2022-11-29T03:38:17.907Z,1008.65
2022-11-29T03:39:17.910Z,1008.64
2022-11-29T03:40:17.884Z,1008.67
2022-11-29T03:41:17.878Z,1008.73
2022-11-29T03:42:17.863Z,1008.70
2022-11-29T03:43:17.849Z,1008.74
2022-11-29T03:44:17.856Z,1008.73
2022-11-29T03:45:17.827Z,1008.73
2022-11-29T03:46:17.861Z,1008.76
2022-11-29T03:47:17.805Z,1008.71
2022-11-29T03:48:17.800Z,1008.72
2022-11-29T03:49:17.792Z,1008.72
2022-11-29T03:50:17.779Z,1008.69
2022-11-29T03:51:17.761Z,1008.65
2022-11-29T03:52:17.757Z,1008.73
2022-11-29T03:53:17.740Z,1008.67
2022-11-29T03:54:17.743Z,1008.64
2022-11-29T03:55:17.719Z,1008.66
2022-11-29T03:56:17.719Z,1008.69
2022-11-29T03:57:17.696Z,1008.68
2022-11-29T03:58:17.695Z,1008.64
2022-11-29T03:59:17.699Z,1008.64
2022-11-29T04:00:17.670Z,1008.65
2022-11-29T04:01:17.685Z,1008.73
2022-11-29T04:02:17.677Z,1008.66
2022-11-29T04:03:17.630Z,1008.67
2022-11-29T04:04:17.633Z,1008.72
2022-11-29T04:05:17.608Z,1008.71
2022-11-29T04:06:17.601Z,1008.73
2022-11-29T04:07:17.635Z,1008.75
2022-11-29T04:08:17.581Z,1008.70
2022-11-29T04:09:17.576Z,1008.76
2022-11-29T04:10:17.557Z,1008.72
2022-11-29T04:11:17.543Z,1008.76
2022-11-29T04:12:17.537Z,1008.73
2022-11-29T04:13:17.521Z,1008.75
2022-11-29T04:14:17.533Z,1008.70
2022-11-29T04:15:17.498Z,1008.73
2022-11-29T04:16:17.588Z,1008.72
2022-11-29T04:17:17.476Z,1008.77
2022-11-29T04:18:17.470Z,1008.73
2022-11-29T04:19:17.474Z,1008.76
2022-11-29T04:20:17.455Z,1008.76
2022-11-29T04:21:17.436Z,1008.79
2022-11-29T04:22:17.457Z,1008.76
2022-11-29T04:23:17.416Z,1008.76
2022-11-29T04:24:17.437Z,1008.73
2022-11-29T04:25:17.389Z,1008.77
2022-11-29T04:26:17.383Z,1008.80
2022-11-29T04:27:17.370Z,1008.76
2022-11-29T04:28:17.361Z,1008.80
2022-11-29T04:29:17.363Z,1008.74
2022-11-29T04:30:17.341Z,1008.76
2022-11-29T04:31:17.498Z,1008.80
2022-11-29T04:32:17.317Z,1008.82
2022-11-29T04:33:17.300Z,1008.85
2022-11-29T04:34:17.293Z,1008.84
2022-11-29T04:35:17.287Z,1008.87
2022-11-29T04:36:17.271Z,1008.89
2022-11-29T04:37:17.257Z,1008.90
2022-11-29T04:38:17.249Z,1008.91
2022-11-29T04:39:17.263Z,1008.90
2022-11-29T04:40:17.249Z,1008.91
2022-11-29T04:41:17.213Z,1008.91
2022-11-29T04:42:17.205Z,1008.93
2022-11-29T04:43:17.193Z,1008.98
2022-11-29T04:44:17.186Z,1008.94
2022-11-29T04:45:17.185Z,1008.95
2022-11-29T04:46:17.221Z,1008.95
2022-11-29T04:47:17.148Z,1008.99
2022-11-29T04:48:17.143Z,1008.99
2022-11-29T04:49:17.124Z,1008.98
2022-11-29T04:50:17.132Z,1009.03
2022-11-29T04:51:17.104Z,1009.02
2022-11-29T04:52:17.096Z,1009.07
2022-11-29T04:53:17.082Z,1009.06
2022-11-29T04:54:17.076Z,1009.05
2022-11-29T04:55:22.842Z,1009.14
2022-11-29T04:56:17.056Z,1009.07
2022-11-29T04:57:17.039Z,1009.14
2022-11-29T04:58:17.030Z,1009.08
2022-11-29T04:59:17.013Z,1009.14
2022-11-29T05:00:17.018Z,1009.12
2022-11-29T05:01:17.033Z,1009.19
2022-11-29T05:02:17.014Z,1009.26
2022-11-29T05:03:16.970Z,1009.16
2022-11-29T05:04:16.967Z,1009.23
2022-11-29T05:05:16.963Z,1009.24
2022-11-29T05:06:16.941Z,1009.21
2022-11-29T05:07:16.971Z,1009.22
2022-11-29T05:08:16.922Z,1009.26
2022-11-29T05:09:16.907Z,1009.22
2022-11-29T05:10:16.912Z,1009.27
2022-11-29T05:11:19.728Z,1009.26
2022-11-29T05:12:16.882Z,1009.26
2022-11-29T05:13:16.863Z,1009.31
2022-11-29T05:14:16.853Z,1009.27
2022-11-29T05:15:16.870Z,1009.28
2022-11-29T05:16:16.866Z,1009.27
2022-11-29T05:17:16.816Z,1009.32
2022-11-29T05:18:16.822Z,1009.31
2022-11-29T05:19:16.793Z,1009.37
2022-11-29T05:20:16.798Z,1009.36
2022-11-29T05:21:16.774Z,1009.36
2022-11-29T05:22:16.771Z,1009.32
2022-11-29T05:23:16.752Z,1009.36
2022-11-29T05:24:16.743Z,1009.37
2022-11-29T05:25:16.739Z,1009.36
2022-11-29T05:26:16.720Z,1009.37
2022-11-29T05:27:16.706Z,1009.39
2022-11-29T05:28:16.709Z,1009.39
2022-11-29T05:29:16.695Z,1009.36
2022-11-29T05:30:16.689Z,1009.40
2022-11-29T05:31:16.742Z,1009.36
2022-11-29T05:32:16.658Z,1009.39
2022-11-29T05:33:16.642Z,1009.39
2022-11-29T05:34:16.632Z,1009.41
2022-11-29T05:35:16.677Z,1009.43
2022-11-29T05:36:16.614Z,1009.45
2022-11-29T05:37:16.598Z,1009.44
2022-11-29T05:38:16.592Z,1009.47
2022-11-29T05:39:16.576Z,1009.50
2022-11-29T05:40:16.608Z,1009.46
2022-11-29T05:41:16.552Z,1009.54
2022-11-29T05:42:16.546Z,1009.47
2022-11-29T05:43:16.530Z,1009.52
2022-11-29T05:44:16.522Z,1009.52
2022-11-29T05:45:16.510Z,1009.55
2022-11-29T05:46:16.568Z,1009.50
2022-11-29T05:47:16.488Z,1009.55
2022-11-29T05:48:16.485Z,1009.56
2022-11-29T05:49:16.463Z,1009.54
2022-11-29T05:50:16.460Z,1009.62
2022-11-29T05:51:16.455Z,1009.62
2022-11-29T05:52:16.443Z,1009.61
2022-11-29T05:53:16.422Z,1009.59
2022-11-29T05:54:16.419Z,1009.61
2022-11-29T05:55:16.406Z,1009.63
2022-11-29T05:56:16.404Z,1009.64
2022-11-29T05:57:16.380Z,1009.68
2022-11-29T05:58:16.392Z,1009.69
2022-11-29T05:59:16.360Z,1009.67
2022-11-29T06:00:16.348Z,1009.66
2022-11-29T06:01:16.350Z,1009.67
2022-11-29T06:02:16.380Z,1009.65
2022-11-29T06:03:16.391Z,1009.70
2022-11-29T06:04:16.307Z,1009.71
2022-11-29T06:05:16.295Z,1009.71
2022-11-29T06:06:16.292Z,1009.70
2022-11-29T06:07:16.368Z,1009.66
2022-11-29T06:08:16.261Z,1009.70
2022-11-29T06:09:16.308Z,1009.69
2022-11-29T06:10:16.240Z,1009.75
2022-11-29T06:11:16.233Z,1009.77
2022-11-29T06:12:20.781Z,1009.79
2022-11-29T06:13:16.205Z,1009.78
2022-11-29T06:14:16.196Z,1009.82
2022-11-29T06:15:16.182Z,1009.83
2022-11-29T06:16:16.233Z,1009.83
2022-11-29T06:17:16.160Z,1009.81
2022-11-29T06:18:16.154Z,1009.85
2022-11-29T06:19:16.138Z,1009.89
2022-11-29T06:20:16.131Z,1009.88
2022-11-29T06:21:16.125Z,1009.86
2022-11-29T06:22:16.108Z,1009.89
2022-11-29T06:23:16.093Z,1009.88
2022-11-29T06:24:16.088Z,1009.88
2022-11-29T06:25:16.073Z,1009.92
2022-11-29T06:26:16.073Z,1009.92
2022-11-29T06:27:16.048Z,1009.98
2022-11-29T06:28:16.042Z,1010.00
2022-11-29T06:29:16.050Z,1009.97
2022-11-29T06:30:16.024Z,1009.95
2022-11-29T06:31:16.100Z,1010.02
2022-11-29T06:32:15.997Z,1010.03
2022-11-29T06:33:15.984Z,1010.05
2022-11-29T06:34:15.976Z,1010.07
2022-11-29T06:35:15.962Z,1010.03
2022-11-29T06:36:15.969Z,1010.06
2022-11-29T06:37:15.941Z,1010.02
2022-11-29T06:38:15.939Z,1010.02
2022-11-29T06:39:15.920Z,1010.06
2022-11-29T06:40:15.934Z,1010.07
2022-11-29T06:41:15.914Z,1010.04
2022-11-29T06:42:15.891Z,1010.08
2022-11-29T06:43:15.881Z,1010.08
2022-11-29T06:44:15.866Z,1010.07
2022-11-29T06:45:15.858Z,1010.08
2022-11-29T06:46:15.921Z,1010.08
2022-11-29T06:47:15.836Z,1010.11
2022-11-29T06:48:15.820Z,1010.13
2022-11-29T06:49:15.817Z,1010.13
2022-11-29T06:50:15.800Z,1010.14
2022-11-29T06:51:15.812Z,1010.14
2022-11-29T06:52:15.778Z,1010.19
2022-11-29T06:53:15.771Z,1010.24
2022-11-29T06:54:15.755Z,1010.19
2022-11-29T06:55:15.753Z,1010.23
2022-11-29T06:56:15.744Z,1010.24
2022-11-29T06:57:15.726Z,1010.26
2022-11-29T06:58:15.716Z,1010.27
2022-11-29T06:59:15.708Z,1010.30
2022-11-29T07:00:15.690Z,1010.29
2022-11-29T07:01:15.748Z,1010.27
2022-11-29T07:02:15.707Z,1010.34
2022-11-29T07:03:15.661Z,1010.28
2022-11-29T07:04:15.646Z,1010.35
2022-11-29T07:05:15.640Z,1010.33
2022-11-29T07:06:15.623Z,1010.32
2022-11-29T07:07:15.680Z,1010.38
2022-11-29T07:08:15.603Z,1010.40
2022-11-29T07:09:15.599Z,1010.38
2022-11-29T07:10:15.580Z,1010.40
2022-11-29T07:11:15.574Z,1010.43
2022-11-29T07:12:15.568Z,1010.41
2022-11-29T07:13:15.561Z,1010.41
2022-11-29T07:14:15.537Z,1010.43
2022-11-29T07:15:15.529Z,1010.41
2022-11-29T07:16:15.543Z,1010.42
2022-11-29T07:17:15.516Z,1010.43
2022-11-29T07:18:15.496Z,1010.47
2022-11-29T07:19:15.485Z,1010.48
2022-11-29T07:20:15.471Z,1010.50
2022-11-29T07:21:15.465Z,1010.51
2022-11-29T07:22:15.457Z,1010.46
2022-11-29T07:23:15.445Z,1010.55
2022-11-29T07:24:15.426Z,1010.49
2022-11-29T07:25:15.424Z,1010.52
2022-11-29T07:26:15.405Z,1010.50
2022-11-29T07:27:15.410Z,1010.50
2022-11-29T07:28:15.384Z,1010.52
2022-11-29T07:29:15.376Z,1010.51
2022-11-29T07:30:15.380Z,1010.50
2022-11-29T07:31:15.362Z,1010.51
2022-11-29T07:32:15.348Z,1010.51
2022-11-29T07:33:15.339Z,1010.46
2022-11-29T07:34:15.320Z,1010.50
2022-11-29T07:35:15.305Z,1010.55
2022-11-29T07:36:15.298Z,1010.54
2022-11-29T07:37:15.296Z,1010.52
2022-11-29T07:38:15.275Z,1010.57
2022-11-29T07:39:15.272Z,1010.54
2022-11-29T07:40:15.255Z,1010.59
2022-11-29T07:41:15.240Z,1010.60
2022-11-29T07:42:15.244Z,1010.61
2022-11-29T07:43:15.221Z,1010.62
2022-11-29T07:44:15.212Z,1010.63
2022-11-29T07:45:15.201Z,1010.67
2022-11-29T07:46:15.233Z,1010.64
2022-11-29T07:47:15.182Z,1010.64
2022-11-29T07:48:15.169Z,1010.67
2022-11-29T07:49:15.153Z,1010.69
2022-11-29T07:50:15.146Z,1010.75
2022-11-29T07:51:15.132Z,1010.75
2022-11-29T07:52:15.132Z,1010.75
2022-11-29T07:53:15.109Z,1010.79
2022-11-29T07:54:15.102Z,1010.82
2022-11-29T07:55:18.631Z,1010.82
2022-11-29T07:56:15.081Z,1010.81
2022-11-29T07:57:15.074Z,1010.83
2022-11-29T07:58:15.059Z,1010.82
2022-11-29T07:59:15.043Z,1010.81
2022-11-29T08:00:15.036Z,1010.83
2022-11-29T08:01:15.229Z,1010.86
2022-11-29T08:02:15.057Z,1010.82
2022-11-29T08:03:15.002Z,1010.86
2022-11-29T08:04:14.992Z,1010.86
2022-11-29T08:05:15.016Z,1010.92
2022-11-29T08:06:14.971Z,1010.91
2022-11-29T08:07:15.016Z,1010.91
2022-11-29T08:08:14.947Z,1010.95
2022-11-29T08:09:14.933Z,1010.93
2022-11-29T08:10:14.927Z,1010.93
2022-11-29T08:11:14.912Z,1010.93
2022-11-29T08:12:14.914Z,1010.95
2022-11-29T08:13:14.890Z,1011.01
2022-11-29T08:14:14.882Z,1011.03
2022-11-29T08:15:14.865Z,1011.03
2022-11-29T08:16:14.926Z,1011.05
2022-11-29T08:17:14.873Z,1011.07
2022-11-29T08:18:14.837Z,1011.08
2022-11-29T08:19:14.834Z,1011.10
2022-11-29T08:20:14.816Z,1011.04
2022-11-29T08:21:14.801Z,1011.03
2022-11-29T08:22:14.804Z,1011.01
2022-11-29T08:23:14.779Z,1011.06
2022-11-29T08:24:14.773Z,1011.03
2022-11-29T08:25:14.757Z,1011.05
2022-11-29T08:26:14.751Z,1011.08
2022-11-29T08:27:14.754Z,1011.09
2022-11-29T08:28:14.730Z,1011.09
2022-11-29T08:29:14.714Z,1011.12
2022-11-29T08:30:14.709Z,1011.14
2022-11-29T08:31:14.737Z,1011.11
2022-11-29T08:32:14.712Z,1011.09
2022-11-29T08:33:14.678Z,1011.11
2022-11-29T08:34:14.664Z,1011.10
2022-11-29T08:35:14.662Z,1011.09
2022-11-29T08:36:14.640Z,1011.08
2022-11-29T08:37:14.628Z,1011.10
2022-11-29T08:38:14.640Z,1011.05
2022-11-29T08:39:14.604Z,1011.13
2022-11-29T08:40:14.599Z,1011.09
2022-11-29T08:41:14.583Z,1011.13
2022-11-29T08:42:14.575Z,1011.10
2022-11-29T08:43:14.569Z,1011.11
2022-11-29T08:44:14.553Z,1011.13
2022-11-29T08:45:14.547Z,1011.15
2022-11-29T08:46:18.531Z,1011.09
2022-11-29T08:47:14.515Z,1011.12
2022-11-29T08:48:14.520Z,1011.12
2022-11-29T08:49:14.494Z,1011.16
2022-11-29T08:50:14.492Z,1011.18
2022-11-29T08:51:14.474Z,1011.21
2022-11-29T08:52:14.468Z,1011.16
2022-11-29T08:53:14.461Z,1011.25
2022-11-29T08:54:14.443Z,1011.21
2022-11-29T08:55:14.426Z,1011.25
2022-11-29T08:56:53.450Z,1011.24
2022-11-29T08:57:38.976Z,1011.30
2022-11-29T08:58:14.417Z,1011.26
2022-11-29T08:59:14.385Z,1011.26
2022-11-29T09:00:14.381Z,1011.31
2022-11-29T09:01:14.411Z,1011.30
2022-11-29T09:02:14.372Z,1011.30
2022-11-29T09:03:14.353Z,1011.34
2022-11-29T09:04:14.333Z,1011.34
2022-11-29T09:05:14.319Z,1011.29
2022-11-29T09:06:14.313Z,1011.37
2022-11-29T09:07:14.296Z,1011.35
2022-11-29T09:08:14.301Z,1011.31
2022-11-29T09:09:14.276Z,1011.33
2022-11-29T09:10:14.268Z,1011.34
2022-11-29T09:11:14.253Z,1011.32
2022-11-29T09:12:14.247Z,1011.38
2022-11-29T09:13:14.241Z,1011.35
2022-11-29T09:14:14.227Z,1011.37
2022-11-29T09:15:14.208Z,1011.34
2022-11-29T09:16:14.252Z,1011.37
2022-11-29T09:17:14.187Z,1011.40
2022-11-29T09:18:14.192Z,1011.38
2022-11-29T09:19:14.178Z,1011.38
2022-11-29T09:20:14.158Z,1011.37
2022-11-29T09:21:14.145Z,1011.38
2022-11-29T09:22:14.135Z,1011.41
2022-11-29T09:23:14.135Z,1011.41
2022-11-29T09:24:14.117Z,1011.43
2022-11-29T09:25:14.099Z,1011.42
2022-11-29T09:26:14.092Z,1011.45
2022-11-29T09:27:14.078Z,1011.42
2022-11-29T09:28:14.080Z,1011.42
2022-11-29T09:29:14.057Z,1011.43
2022-11-29T09:30:16.968Z,1011.45
2022-11-29T09:31:14.076Z,1011.51
2022-11-29T09:32:14.027Z,1011.50
2022-11-29T09:33:14.020Z,1011.48
2022-11-29T09:34:14.014Z,1011.50
2022-11-29T09:35:13.993Z,1011.50
2022-11-29T09:36:13.984Z,1011.52
2022-11-29T09:37:13.966Z,1011.48
2022-11-29T09:38:13.976Z,1011.51
2022-11-29T09:39:13.950Z,1011.52
2022-11-29T09:40:13.938Z,1011.51
2022-11-29T09:41:13.928Z,1011.43
2022-11-29T09:42:13.916Z,1011.50
2022-11-29T09:43:13.905Z,1011.51
2022-11-29T09:44:13.906Z,1011.53
2022-11-29T09:45:13.888Z,1011.51
2022-11-29T09:46:13.909Z,1011.55
2022-11-29T09:47:13.860Z,1011.55
2022-11-29T09:48:13.843Z,1011.57
2022-11-29T09:49:13.848Z,1011.61
2022-11-29T09:50:13.830Z,1011.56
2022-11-29T09:51:13.817Z,1011.53
2022-11-29T09:52:13.809Z,1011.54
2022-11-29T09:53:13.797Z,1011.60
2022-11-29T09:54:13.787Z,1011.61
2022-11-29T09:55:13.773Z,1011.61
2022-11-29T09:56:13.759Z,1011.62
2022-11-29T09:57:13.749Z,1011.61
2022-11-29T09:58:13.734Z,1011.64
2022-11-29T09:59:13.789Z,1011.66
2022-11-29T10:00:13.710Z,1011.65
2022-11-29T10:01:13.751Z,1011.63
2022-11-29T10:02:18.290Z,1011.68
2022-11-29T10:03:13.688Z,1011.65
2022-11-29T10:04:13.677Z,1011.64
2022-11-29T10:05:13.760Z,1011.66
2022-11-29T10:06:13.646Z,1011.63
2022-11-29T10:07:13.640Z,1011.64
2022-11-29T10:08:13.623Z,1011.62
2022-11-29T10:09:13.627Z,1011.61
2022-11-29T10:10:13.601Z,1011.62
2022-11-29T10:11:13.593Z,1011.64
2022-11-29T10:12:13.601Z,1011.65
2022-11-29T10:13:13.579Z,1011.61
2022-11-29T10:14:13.596Z,1011.69
2022-11-29T10:15:13.548Z,1011.65
2022-11-29T10:16:13.579Z,1011.63
2022-11-29T10:17:13.528Z,1011.68
2022-11-29T10:18:13.513Z,1011.62
2022-11-29T10:19:13.515Z,1011.67
2022-11-29T10:20:13.492Z,1011.73
2022-11-29T10:21:13.486Z,1011.68
2022-11-29T10:22:13.468Z,1011.76
2022-11-29T10:23:13.462Z,1011.71
2022-11-29T10:24:13.456Z,1011.71
2022-11-29T10:25:13.441Z,1011.72
2022-11-29T10:26:13.425Z,1011.71
2022-11-29T10:27:13.416Z,1011.79
2022-11-29T10:28:13.401Z,1011.76
2022-11-29T10:29:13.403Z,1011.76
2022-11-29T10:30:13.380Z,1011.72
2022-11-29T10:31:13.422Z,1011.73
2022-11-29T10:32:13.356Z,1011.73
2022-11-29T10:33:13.350Z,1011.74
2022-11-29T10:34:13.345Z,1011.75
2022-11-29T10:35:13.330Z,1011.76
2022-11-29T10:36:13.312Z,1011.77
2022-11-29T10:37:13.308Z,1011.73
2022-11-29T10:39:14.787Z,1011.75
2022-11-29T10:40:13.269Z,1011.77
2022-11-29T10:41:13.270Z,1011.75
2022-11-29T10:42:13.246Z,1011.80
2022-11-29T10:43:13.240Z,1011.79
2022-11-29T10:44:13.239Z,1011.78
2022-11-29T10:45:13.217Z,1011.79
2022-11-29T10:46:13.237Z,1011.77
2022-11-29T10:47:13.198Z,1011.78
2022-11-29T10:48:13.200Z,1011.78
2022-11-29T10:49:13.184Z,1011.80
2022-11-29T10:50:13.171Z,1011.76
2022-11-29T10:51:13.149Z,1011.75
2022-11-29T10:52:13.137Z,1011.83
2022-11-29T10:53:13.129Z,1011.83
2022-11-29T10:54:13.123Z,1011.83
2022-11-29T10:55:13.106Z,1011.86
2022-11-29T10:56:13.089Z,1011.88
2022-11-29T10:57:13.083Z,1011.89
2022-11-29T10:58:13.069Z,1011.84
2022-11-29T10:59:13.072Z,1011.83
2022-11-29T11:00:13.046Z,1011.86
2022-11-29T11:01:13.111Z,1011.93
2022-11-29T11:02:13.024Z,1011.86
2022-11-29T11:03:13.017Z,1011.85
2022-11-29T11:04:13.013Z,1011.85
2022-11-29T11:05:13.122Z,1011.88
2022-11-29T11:06:12.978Z,1011.87
2022-11-29T11:07:12.973Z,1011.92
2022-11-29T11:08:12.957Z,1011.89
2022-11-29T11:09:13.034Z,1011.87
2022-11-29T11:10:12.940Z,1011.91
2022-11-29T11:11:12.934Z,1011.90
2022-11-29T11:12:12.920Z,1011.92
2022-11-29T11:13:12.906Z,1011.93
2022-11-29T11:14:12.893Z,1011.90
2022-11-29T11:15:12.896Z,1011.92
2022-11-29T11:16:12.925Z,1011.92
2022-11-29T11:17:12.903Z,1011.89
2022-11-29T11:18:12.848Z,1011.91
2022-11-29T11:19:12.844Z,1011.95
2022-11-29T11:20:12.837Z,1011.94
2022-11-29T11:21:12.816Z,1011.92
2022-11-29T11:22:12.805Z,1011.90
2022-11-29T11:23:12.797Z,1011.93
2022-11-29T11:24:12.781Z,1011.99
2022-11-29T11:25:12.784Z,1011.99
2022-11-29T11:26:12.759Z,1011.99
2022-11-29T11:27:12.752Z,1012.05
2022-11-29T11:28:12.736Z,1012.07
2022-11-29T11:29:12.729Z,1012.05
2022-11-29T11:30:12.723Z,1012.03
2022-11-29T11:31:12.801Z,1012.02
2022-11-29T11:32:12.691Z,1012.05
2022-11-29T11:33:12.686Z,1012.02
2022-11-29T11:34:12.670Z,1012.03
2022-11-29T11:35:18.210Z,1012.03
2022-11-29T11:36:12.657Z,1012.01
2022-11-29T11:37:12.641Z,1012.01
2022-11-29T11:38:12.627Z,1012.02
2022-11-29T11:39:12.622Z,1012.02
2022-11-29T11:40:12.629Z,1012.00
2022-11-29T11:41:12.598Z,1012.01
2022-11-29T11:42:12.599Z,1012.06
2022-11-29T11:43:12.575Z,1012.05
2022-11-29T11:44:15.319Z,1012.06
2022-11-29T11:45:12.571Z,1012.05
2022-11-29T11:46:17.707Z,1012.04
2022-11-29T11:47:12.536Z,1012.03
2022-11-29T11:48:12.516Z,1012.04
2022-11-29T11:49:12.510Z,1012.03
2022-11-29T11:50:12.508Z,1012.01
2022-11-29T11:51:12.481Z,1012.02
2022-11-29T11:52:12.482Z,1012.08
2022-11-29T11:53:12.459Z,1012.03
2022-11-29T11:54:12.453Z,1012.08
2022-11-29T11:55:12.448Z,1012.07
2022-11-29T11:56:12.430Z,1012.11
2022-11-29T11:57:12.415Z,1012.10
2022-11-29T11:58:12.411Z,1012.12
2022-11-29T11:59:12.403Z,1012.07
2022-11-29T12:00:12.395Z,1012.10
2022-11-29T12:01:12.372Z,1012.12
2022-11-29T12:02:12.432Z,1012.11
2022-11-29T12:03:12.560Z,1012.12
2022-11-29T12:04:12.349Z,1012.12
2022-11-29T12:05:12.337Z,1012.11
2022-11-29T12:06:12.320Z,1012.08